sensor_id;sensor_type;location;lat;lon;timestamp;P1;durP1;ratioP1;P2;durP2;ratioP2
11348;SDS011;5729;43.570;27.826;2022-09-29T00:02:18;8.18;;;4.05;;
11348;SDS011;5729;43.570;27.826;2022-09-29T00:04:43;5.38;;;3.25;;
11348;SDS011;5729;43.570;27.826;2022-09-29T00:07:09;6.72;;;3.38;;
11348;SDS011;5729;43.570;27.826;2022-09-29T00:09:34;5.55;;;3.00;;
11348;SDS011;5729;43.570;27.826;2022-09-29T00:12:00;8.35;;;3.40;;
11348;SDS011;5729;43.570;27.826;2022-09-29T00:14:25;7.70;;;3.38;;
11348;SDS011;5729;43.570;27.826;2022-09-29T00:16:51;6.78;;;3.63;;
11348;SDS011;5729;43.570;27.826;2022-09-29T00:19:17;8.90;;;3.50;;
11348;SDS011;5729;43.570;27.826;2022-09-29T00:21:43;4.97;;;3.05;;
11348;SDS011;5729;43.570;27.826;2022-09-29T00:24:09;9.60;;;3.53;;
11348;SDS011;5729;43.570;27.826;2022-09-29T00:26:34;5.03;;;3.08;;
11348;SDS011;5729;43.570;27.826;2022-09-29T00:28:59;6.00;;;4.05;;
11348;SDS011;5729;43.570;27.826;2022-09-29T00:31:29;4.93;;;3.17;;
11348;SDS011;5729;43.570;27.826;2022-09-29T00:33:56;9.70;;;3.80;;
11348;SDS011;5729;43.570;27.826;2022-09-29T00:36:22;7.38;;;3.47;;
11348;SDS011;5729;43.570;27.826;2022-09-29T00:38:49;10.80;;;4.22;;
11348;SDS011;5729;43.570;27.826;2022-09-29T00:41:25;5.95;;;3.40;;
11348;SDS011;5729;43.570;27.826;2022-09-29T00:52:35;6.65;;;3.35;;
11348;SDS011;5729;43.570;27.826;2022-09-29T00:57:40;7.95;;;3.55;;
11348;SDS011;5729;43.570;27.826;2022-09-29T01:00:13;7.90;;;3.92;;
11348;SDS011;5729;43.570;27.826;2022-09-29T01:02:42;12.15;;;3.88;;
11348;SDS011;5729;43.570;27.826;2022-09-29T01:05:33;8.73;;;4.20;;
11348;SDS011;5729;43.570;27.826;2022-09-29T01:08:15;6.57;;;3.90;;
11348;SDS011;5729;43.570;27.826;2022-09-29T01:10:46;8.10;;;3.90;;
11348;SDS011;5729;43.570;27.826;2022-09-29T01:13:14;6.97;;;3.85;;
11348;SDS011;5729;43.570;27.826;2022-09-29T01:15:40;6.93;;;4.63;;
11348;SDS011;5729;43.570;27.826;2022-09-29T01:18:06;8.23;;;4.40;;
11348;SDS011;5729;43.570;27.826;2022-09-29T01:20:32;13.82;;;4.88;;
11348;SDS011;5729;43.570;27.826;2022-09-29T01:23:21;8.93;;;4.60;;
11348;SDS011;5729;43.570;27.826;2022-09-29T01:31:13;12.27;;;4.70;;
11348;SDS011;5729;43.570;27.826;2022-09-29T01:39:33;10.23;;;5.43;;
11348;SDS011;5729;43.570;27.826;2022-09-29T01:42:11;9.95;;;5.88;;
11348;SDS011;5729;43.570;27.826;2022-09-29T01:44:51;9.45;;;6.32;;
11348;SDS011;5729;43.570;27.826;2022-09-29T01:49:56;12.85;;;5.88;;
11348;SDS011;5729;43.570;27.826;2022-09-29T01:52:26;14.73;;;6.60;;
11348;SDS011;5729;43.570;27.826;2022-09-29T01:55:00;11.60;;;6.75;;
11348;SDS011;5729;43.570;27.826;2022-09-29T01:57:32;11.43;;;6.57;;
11348;SDS011;5729;43.570;27.826;2022-09-29T02:02:48;11.50;;;7.35;;
11348;SDS011;5729;43.570;27.826;2022-09-29T02:05:20;16.17;;;8.23;;
11348;SDS011;5729;43.570;27.826;2022-09-29T02:07:51;14.98;;;7.57;;
11348;SDS011;5729;43.570;27.826;2022-09-29T02:10:23;14.60;;;7.97;;
11348;SDS011;5729;43.570;27.826;2022-09-29T02:12:52;12.52;;;7.75;;
11348;SDS011;5729;43.570;27.826;2022-09-29T02:15:22;18.88;;;7.18;;
11348;SDS011;5729;43.570;27.826;2022-09-29T02:17:51;13.05;;;6.95;;
11348;SDS011;5729;43.570;27.826;2022-09-29T02:20:19;12.38;;;7.53;;
11348;SDS011;5729;43.570;27.826;2022-09-29T02:22:45;15.93;;;7.30;;
11348;SDS011;5729;43.570;27.826;2022-09-29T02:25:11;15.55;;;7.97;;
11348;SDS011;5729;43.570;27.826;2022-09-29T02:27:40;14.05;;;7.50;;
11348;SDS011;5729;43.570;27.826;2022-09-29T02:30:06;14.65;;;6.85;;
11348;SDS011;5729;43.570;27.826;2022-09-29T02:32:32;15.05;;;6.57;;
11348;SDS011;5729;43.570;27.826;2022-09-29T02:34:59;15.43;;;6.65;;
11348;SDS011;5729;43.570;27.826;2022-09-29T02:40:29;12.10;;;6.13;;
11348;SDS011;5729;43.570;27.826;2022-09-29T02:46:13;11.90;;;7.50;;
11348;SDS011;5729;43.570;27.826;2022-09-29T02:51:53;18.92;;;6.65;;
11348;SDS011;5729;43.570;27.826;2022-09-29T03:02:14;12.30;;;7.55;;
11348;SDS011;5729;43.570;27.826;2022-09-29T03:04:40;13.30;;;6.75;;
11348;SDS011;5729;43.570;27.826;2022-09-29T03:07:06;11.95;;;7.18;;
11348;SDS011;5729;43.570;27.826;2022-09-29T03:09:31;14.82;;;7.22;;
11348;SDS011;5729;43.570;27.826;2022-09-29T03:11:57;14.30;;;7.57;;
11348;SDS011;5729;43.570;27.826;2022-09-29T03:14:23;17.65;;;7.90;;
11348;SDS011;5729;43.570;27.826;2022-09-29T03:16:48;14.02;;;7.07;;
11348;SDS011;5729;43.570;27.826;2022-09-29T03:19:13;11.95;;;6.97;;
11348;SDS011;5729;43.570;27.826;2022-09-29T03:21:39;9.82;;;6.57;;
11348;SDS011;5729;43.570;27.826;2022-09-29T03:24:04;13.85;;;7.05;;
11348;SDS011;5729;43.570;27.826;2022-09-29T03:26:30;15.68;;;6.85;;
11348;SDS011;5729;43.570;27.826;2022-09-29T03:28:55;11.77;;;6.60;;
11348;SDS011;5729;43.570;27.826;2022-09-29T03:31:21;11.45;;;7.22;;
11348;SDS011;5729;43.570;27.826;2022-09-29T03:33:47;13.50;;;7.00;;
11348;SDS011;5729;43.570;27.826;2022-09-29T03:36:12;12.48;;;7.75;;
11348;SDS011;5729;43.570;27.826;2022-09-29T03:38:38;11.90;;;6.90;;
11348;SDS011;5729;43.570;27.826;2022-09-29T03:41:04;13.65;;;6.95;;
11348;SDS011;5729;43.570;27.826;2022-09-29T03:43:31;11.43;;;7.45;;
11348;SDS011;5729;43.570;27.826;2022-09-29T03:45:57;17.17;;;7.55;;
11348;SDS011;5729;43.570;27.826;2022-09-29T03:48:23;16.92;;;7.13;;
11348;SDS011;5729;43.570;27.826;2022-09-29T03:50:49;25.00;;;8.02;;
11348;SDS011;5729;43.570;27.826;2022-09-29T03:53:16;18.48;;;7.68;;
11348;SDS011;5729;43.570;27.826;2022-09-29T03:55:45;12.40;;;6.97;;
11348;SDS011;5729;43.570;27.826;2022-09-29T03:58:11;10.77;;;6.80;;
11348;SDS011;5729;43.570;27.826;2022-09-29T04:00:37;16.70;;;9.05;;
11348;SDS011;5729;43.570;27.826;2022-09-29T04:03:03;14.38;;;8.38;;
11348;SDS011;5729;43.570;27.826;2022-09-29T04:05:29;27.63;;;8.63;;
11348;SDS011;5729;43.570;27.826;2022-09-29T04:07:54;16.92;;;7.97;;
11348;SDS011;5729;43.570;27.826;2022-09-29T04:10:20;19.52;;;7.75;;
11348;SDS011;5729;43.570;27.826;2022-09-29T04:12:46;15.23;;;8.80;;
11348;SDS011;5729;43.570;27.826;2022-09-29T04:15:11;24.40;;;7.70;;
11348;SDS011;5729;43.570;27.826;2022-09-29T04:17:37;38.80;;;8.60;;
11348;SDS011;5729;43.570;27.826;2022-09-29T04:20:02;32.95;;;9.25;;
11348;SDS011;5729;43.570;27.826;2022-09-29T04:22:28;19.00;;;7.85;;
11348;SDS011;5729;43.570;27.826;2022-09-29T04:24:53;21.55;;;8.20;;
11348;SDS011;5729;43.570;27.826;2022-09-29T04:27:20;18.50;;;7.55;;
11348;SDS011;5729;43.570;27.826;2022-09-29T04:29:45;17.98;;;7.63;;
11348;SDS011;5729;43.570;27.826;2022-09-29T04:32:11;19.45;;;8.20;;
11348;SDS011;5729;43.570;27.826;2022-09-29T04:34:36;13.93;;;7.40;;
11348;SDS011;5729;43.570;27.826;2022-09-29T04:37:02;27.17;;;7.88;;
11348;SDS011;5729;43.570;27.826;2022-09-29T04:39:27;15.30;;;7.28;;
11348;SDS011;5729;43.570;27.826;2022-09-29T04:41:53;23.85;;;8.25;;
11348;SDS011;5729;43.570;27.826;2022-09-29T04:44:18;13.95;;;7.97;;
11348;SDS011;5729;43.570;27.826;2022-09-29T04:46:48;18.00;;;8.20;;
11348;SDS011;5729;43.570;27.826;2022-09-29T04:49:14;14.50;;;8.02;;
11348;SDS011;5729;43.570;27.826;2022-09-29T04:51:39;16.42;;;7.70;;
11348;SDS011;5729;43.570;27.826;2022-09-29T04:54:05;39.50;;;7.70;;
11348;SDS011;5729;43.570;27.826;2022-09-29T04:56:30;17.98;;;7.30;;
11348;SDS011;5729;43.570;27.826;2022-09-29T04:58:59;19.23;;;7.82;;
11348;SDS011;5729;43.570;27.826;2022-09-29T05:01:25;16.88;;;8.02;;
11348;SDS011;5729;43.570;27.826;2022-09-29T05:03:51;17.10;;;7.75;;
11348;SDS011;5729;43.570;27.826;2022-09-29T05:06:16;33.05;;;9.75;;
11348;SDS011;5729;43.570;27.826;2022-09-29T05:08:42;38.55;;;10.65;;
11348;SDS011;5729;43.570;27.826;2022-09-29T05:11:08;25.40;;;10.18;;
11348;SDS011;5729;43.570;27.826;2022-09-29T05:13:34;30.55;;;9.45;;
11348;SDS011;5729;43.570;27.826;2022-09-29T05:16:00;21.95;;;8.77;;
11348;SDS011;5729;43.570;27.826;2022-09-29T05:18:27;21.60;;;9.10;;
11348;SDS011;5729;43.570;27.826;2022-09-29T05:20:52;26.02;;;9.48;;
11348;SDS011;5729;43.570;27.826;2022-09-29T05:23:18;19.52;;;8.85;;
11348;SDS011;5729;43.570;27.826;2022-09-29T05:25:44;20.08;;;8.40;;
11348;SDS011;5729;43.570;27.826;2022-09-29T05:28:10;18.42;;;9.20;;
11348;SDS011;5729;43.570;27.826;2022-09-29T05:30:36;18.38;;;8.55;;
11348;SDS011;5729;43.570;27.826;2022-09-29T05:33:03;12.30;;;8.00;;
11348;SDS011;5729;43.570;27.826;2022-09-29T05:35:29;19.48;;;8.82;;
11348;SDS011;5729;43.570;27.826;2022-09-29T05:37:54;28.90;;;8.73;;
11348;SDS011;5729;43.570;27.826;2022-09-29T05:40:19;16.85;;;6.55;;
11348;SDS011;5729;43.570;27.826;2022-09-29T05:42:48;24.77;;;9.15;;
11348;SDS011;5729;43.570;27.826;2022-09-29T05:45:14;9.13;;;4.45;;
11348;SDS011;5729;43.570;27.826;2022-09-29T05:47:40;13.98;;;4.70;;
11348;SDS011;5729;43.570;27.826;2022-09-29T05:50:07;11.13;;;4.47;;
11348;SDS011;5729;43.570;27.826;2022-09-29T05:52:33;5.32;;;4.10;;
11348;SDS011;5729;43.570;27.826;2022-09-29T05:54:58;14.77;;;4.30;;
11348;SDS011;5729;43.570;27.826;2022-09-29T05:57:24;9.18;;;3.88;;
11348;SDS011;5729;43.570;27.826;2022-09-29T05:59:49;5.95;;;3.55;;
11348;SDS011;5729;43.570;27.826;2022-09-29T06:02:15;6.18;;;3.10;;
11348;SDS011;5729;43.570;27.826;2022-09-29T06:04:41;15.65;;;4.07;;
11348;SDS011;5729;43.570;27.826;2022-09-29T06:07:06;6.78;;;3.47;;
11348;SDS011;5729;43.570;27.826;2022-09-29T06:09:32;5.05;;;2.80;;
11348;SDS011;5729;43.570;27.826;2022-09-29T06:11:59;5.72;;;3.10;;
11348;SDS011;5729;43.570;27.826;2022-09-29T06:14:25;8.25;;;3.45;;
11348;SDS011;5729;43.570;27.826;2022-09-29T06:16:50;6.40;;;2.45;;
11348;SDS011;5729;43.570;27.826;2022-09-29T06:19:17;8.73;;;2.97;;
11348;SDS011;5729;43.570;27.826;2022-09-29T06:21:42;7.47;;;2.90;;
11348;SDS011;5729;43.570;27.826;2022-09-29T06:24:08;12.40;;;2.88;;
11348;SDS011;5729;43.570;27.826;2022-09-29T06:26:33;10.55;;;2.92;;
11348;SDS011;5729;43.570;27.826;2022-09-29T06:28:59;4.35;;;2.67;;
11348;SDS011;5729;43.570;27.826;2022-09-29T06:31:25;4.50;;;2.72;;
11348;SDS011;5729;43.570;27.826;2022-09-29T06:33:52;3.38;;;2.58;;
11348;SDS011;5729;43.570;27.826;2022-09-29T06:36:25;8.90;;;3.17;;
11348;SDS011;5729;43.570;27.826;2022-09-29T06:39:15;4.75;;;2.70;;
11348;SDS011;5729;43.570;27.826;2022-09-29T06:41:41;21.00;;;3.58;;
11348;SDS011;5729;43.570;27.826;2022-09-29T06:44:16;11.52;;;3.08;;
11348;SDS011;5729;43.570;27.826;2022-09-29T06:46:42;4.28;;;2.45;;
11348;SDS011;5729;43.570;27.826;2022-09-29T06:49:07;10.88;;;3.10;;
11348;SDS011;5729;43.570;27.826;2022-09-29T06:51:35;2.67;;;2.40;;
11348;SDS011;5729;43.570;27.826;2022-09-29T06:54:01;6.18;;;2.60;;
11348;SDS011;5729;43.570;27.826;2022-09-29T06:56:27;10.77;;;4.22;;
11348;SDS011;5729;43.570;27.826;2022-09-29T06:58:53;5.43;;;2.35;;
11348;SDS011;5729;43.570;27.826;2022-09-29T07:01:18;4.75;;;2.72;;
11348;SDS011;5729;43.570;27.826;2022-09-29T07:03:44;6.05;;;2.40;;
11348;SDS011;5729;43.570;27.826;2022-09-29T07:06:09;12.20;;;3.72;;
11348;SDS011;5729;43.570;27.826;2022-09-29T07:08:35;8.00;;;2.30;;
11348;SDS011;5729;43.570;27.826;2022-09-29T07:11:03;5.55;;;2.75;;
11348;SDS011;5729;43.570;27.826;2022-09-29T07:13:29;5.22;;;2.25;;
11348;SDS011;5729;43.570;27.826;2022-09-29T07:15:54;5.85;;;2.38;;
11348;SDS011;5729;43.570;27.826;2022-09-29T07:18:20;14.20;;;3.72;;
11348;SDS011;5729;43.570;27.826;2022-09-29T07:20:46;11.65;;;3.47;;
11348;SDS011;5729;43.570;27.826;2022-09-29T07:23:11;3.47;;;2.00;;
11348;SDS011;5729;43.570;27.826;2022-09-29T07:25:37;3.72;;;2.30;;
11348;SDS011;5729;43.570;27.826;2022-09-29T07:28:03;5.55;;;2.58;;
11348;SDS011;5729;43.570;27.826;2022-09-29T07:30:29;6.28;;;2.58;;
11348;SDS011;5729;43.570;27.826;2022-09-29T07:32:55;10.68;;;3.55;;
11348;SDS011;5729;43.570;27.826;2022-09-29T07:35:21;7.63;;;3.22;;
11348;SDS011;5729;43.570;27.826;2022-09-29T07:37:51;5.75;;;2.00;;
11348;SDS011;5729;43.570;27.826;2022-09-29T07:40:17;18.52;;;3.42;;
11348;SDS011;5729;43.570;27.826;2022-09-29T07:42:43;15.10;;;3.35;;
11348;SDS011;5729;43.570;27.826;2022-09-29T07:45:08;3.47;;;2.10;;
11348;SDS011;5729;43.570;27.826;2022-09-29T07:47:34;6.88;;;2.10;;
11348;SDS011;5729;43.570;27.826;2022-09-29T07:50:00;5.70;;;2.80;;
11348;SDS011;5729;43.570;27.826;2022-09-29T07:52:25;8.38;;;2.20;;
11348;SDS011;5729;43.570;27.826;2022-09-29T07:54:50;4.43;;;2.20;;
11348;SDS011;5729;43.570;27.826;2022-09-29T07:57:16;8.77;;;3.28;;
11348;SDS011;5729;43.570;27.826;2022-09-29T07:59:41;7.82;;;2.42;;
11348;SDS011;5729;43.570;27.826;2022-09-29T08:02:08;5.95;;;2.33;;
11348;SDS011;5729;43.570;27.826;2022-09-29T08:04:33;9.00;;;2.60;;
11348;SDS011;5729;43.570;27.826;2022-09-29T08:06:59;11.32;;;2.58;;
11348;SDS011;5729;43.570;27.826;2022-09-29T08:09:24;10.98;;;2.28;;
11348;SDS011;5729;43.570;27.826;2022-09-29T08:11:50;7.85;;;2.20;;
11348;SDS011;5729;43.570;27.826;2022-09-29T08:14:15;3.13;;;2.08;;
11348;SDS011;5729;43.570;27.826;2022-09-29T08:16:41;5.07;;;1.98;;
11348;SDS011;5729;43.570;27.826;2022-09-29T08:19:06;3.25;;;1.90;;
11348;SDS011;5729;43.570;27.826;2022-09-29T08:21:32;2.83;;;2.00;;
11348;SDS011;5729;43.570;27.826;2022-09-29T08:24:04;9.07;;;2.78;;
11348;SDS011;5729;43.570;27.826;2022-09-29T08:26:31;5.65;;;2.08;;
11348;SDS011;5729;43.570;27.826;2022-09-29T08:28:59;4.00;;;2.45;;
11348;SDS011;5729;43.570;27.826;2022-09-29T08:31:28;5.78;;;1.90;;
11348;SDS011;5729;43.570;27.826;2022-09-29T08:33:54;6.13;;;2.38;;
11348;SDS011;5729;43.570;27.826;2022-09-29T08:36:22;6.88;;;2.50;;
11348;SDS011;5729;43.570;27.826;2022-09-29T08:38:49;7.95;;;2.80;;
11348;SDS011;5729;43.570;27.826;2022-09-29T08:41:22;4.78;;;1.92;;
11348;SDS011;5729;43.570;27.826;2022-09-29T08:43:57;8.50;;;2.42;;
11348;SDS011;5729;43.570;27.826;2022-09-29T08:46:34;5.93;;;2.38;;
11348;SDS011;5729;43.570;27.826;2022-09-29T08:49:11;8.57;;;2.38;;
11348;SDS011;5729;43.570;27.826;2022-09-29T08:51:43;5.63;;;2.28;;
11348;SDS011;5729;43.570;27.826;2022-09-29T08:54:35;7.60;;;2.50;;
11348;SDS011;5729;43.570;27.826;2022-09-29T08:57:01;6.55;;;2.10;;
11348;SDS011;5729;43.570;27.826;2022-09-29T08:59:30;4.20;;;2.17;;
11348;SDS011;5729;43.570;27.826;2022-09-29T09:04:44;6.45;;;2.10;;
11348;SDS011;5729;43.570;27.826;2022-09-29T09:20:47;3.65;;;2.30;;
11348;SDS011;5729;43.570;27.826;2022-09-29T09:26:34;7.43;;;2.58;;
11348;SDS011;5729;43.570;27.826;2022-09-29T09:29:06;3.95;;;1.88;;
11348;SDS011;5729;43.570;27.826;2022-09-29T09:31:39;4.43;;;1.90;;
11348;SDS011;5729;43.570;27.826;2022-09-29T09:34:15;3.38;;;1.80;;
11348;SDS011;5729;43.570;27.826;2022-09-29T09:36:54;3.55;;;1.77;;
11348;SDS011;5729;43.570;27.826;2022-09-29T09:39:38;5.47;;;2.10;;
11348;SDS011;5729;43.570;27.826;2022-09-29T09:42:10;3.30;;;1.98;;
11348;SDS011;5729;43.570;27.826;2022-09-29T09:44:43;11.07;;;3.05;;
11348;SDS011;5729;43.570;27.826;2022-09-29T09:49:41;3.95;;;2.30;;
11348;SDS011;5729;43.570;27.826;2022-09-29T09:54:58;4.07;;;2.03;;
11348;SDS011;5729;43.570;27.826;2022-09-29T10:02:54;3.05;;;2.03;;
11348;SDS011;5729;43.570;27.826;2022-09-29T10:05:21;6.28;;;2.50;;
11348;SDS011;5729;43.570;27.826;2022-09-29T10:07:50;5.13;;;2.80;;
11348;SDS011;5729;43.570;27.826;2022-09-29T10:10:21;7.75;;;3.13;;
11348;SDS011;5729;43.570;27.826;2022-09-29T10:13:02;14.05;;;2.80;;
11348;SDS011;5729;43.570;27.826;2022-09-29T10:15:32;5.65;;;2.22;;
11348;SDS011;5729;43.570;27.826;2022-09-29T10:20:41;6.13;;;2.35;;
11348;SDS011;5729;43.570;27.826;2022-09-29T10:25:51;5.80;;;2.30;;
11348;SDS011;5729;43.570;27.826;2022-09-29T10:28:21;6.55;;;2.35;;
11348;SDS011;5729;43.570;27.826;2022-09-29T10:30:47;6.25;;;2.00;;
11348;SDS011;5729;43.570;27.826;2022-09-29T10:33:17;13.05;;;3.00;;
11348;SDS011;5729;43.570;27.826;2022-09-29T10:35:47;5.32;;;1.95;;
11348;SDS011;5729;43.570;27.826;2022-09-29T10:43:26;5.18;;;1.83;;
11348;SDS011;5729;43.570;27.826;2022-09-29T10:46:00;4.35;;;1.88;;
11348;SDS011;5729;43.570;27.826;2022-09-29T10:48:26;15.20;;;2.10;;
11348;SDS011;5729;43.570;27.826;2022-09-29T10:50:57;7.82;;;2.40;;
11348;SDS011;5729;43.570;27.826;2022-09-29T10:53:31;13.07;;;2.90;;
11348;SDS011;5729;43.570;27.826;2022-09-29T10:55:59;11.98;;;2.70;;
11348;SDS011;5729;43.570;27.826;2022-09-29T10:58:39;4.45;;;1.67;;
11348;SDS011;5729;43.570;27.826;2022-09-29T11:01:10;6.68;;;2.30;;
11348;SDS011;5729;43.570;27.826;2022-09-29T11:03:45;5.40;;;1.92;;
11348;SDS011;5729;43.570;27.826;2022-09-29T11:06:11;5.75;;;2.10;;
11348;SDS011;5729;43.570;27.826;2022-09-29T11:08:54;6.32;;;2.25;;
11348;SDS011;5729;43.570;27.826;2022-09-29T11:11:31;7.95;;;2.35;;
11348;SDS011;5729;43.570;27.826;2022-09-29T11:13:59;5.95;;;2.38;;
11348;SDS011;5729;43.570;27.826;2022-09-29T11:18:53;3.10;;;1.85;;
11348;SDS011;5729;43.570;27.826;2022-09-29T11:49:39;7.03;;;2.38;;
11348;SDS011;5729;43.570;27.826;2022-09-29T11:58:10;5.43;;;2.92;;
11348;SDS011;5729;43.570;27.826;2022-09-29T12:14:59;5.90;;;2.65;;
11348;SDS011;5729;43.570;27.826;2022-09-29T12:17:32;8.48;;;3.50;;
11348;SDS011;5729;43.570;27.826;2022-09-29T12:20:04;6.45;;;2.40;;
11348;SDS011;5729;43.570;27.826;2022-09-29T12:22:38;6.35;;;2.80;;
11348;SDS011;5729;43.570;27.826;2022-09-29T12:25:04;3.58;;;2.65;;
11348;SDS011;5729;43.570;27.826;2022-09-29T12:27:38;5.13;;;2.45;;
11348;SDS011;5729;43.570;27.826;2022-09-29T12:30:14;4.85;;;2.72;;
11348;SDS011;5729;43.570;27.826;2022-09-29T12:38:54;7.03;;;2.50;;
11348;SDS011;5729;43.570;27.826;2022-09-29T12:41:25;6.97;;;2.75;;
11348;SDS011;5729;43.570;27.826;2022-09-29T12:44:01;8.68;;;3.22;;
11348;SDS011;5729;43.570;27.826;2022-09-29T12:46:40;10.85;;;3.55;;
11348;SDS011;5729;43.570;27.826;2022-09-29T12:51:47;7.00;;;3.28;;
11348;SDS011;5729;43.570;27.826;2022-09-29T12:54:21;13.68;;;3.47;;
11348;SDS011;5729;43.570;27.826;2022-09-29T12:59:36;14.60;;;3.53;;
11348;SDS011;5729;43.570;27.826;2022-09-29T13:08:16;9.82;;;3.45;;
11348;SDS011;5729;43.570;27.826;2022-09-29T13:13:34;8.20;;;3.17;;
11348;SDS011;5729;43.570;27.826;2022-09-29T13:27:17;8.75;;;3.30;;
11348;SDS011;5729;43.570;27.826;2022-09-29T13:30:05;7.18;;;3.20;;
11348;SDS011;5729;43.570;27.826;2022-09-29T13:35:40;18.27;;;3.90;;
11348;SDS011;5729;43.570;27.826;2022-09-29T13:38:16;11.30;;;6.20;;
11348;SDS011;5729;43.570;27.826;2022-09-29T13:44:25;7.75;;;3.03;;
11348;SDS011;5729;43.570;27.826;2022-09-29T13:49:10;8.75;;;3.13;;
11348;SDS011;5729;43.570;27.826;2022-09-29T13:56:48;14.50;;;3.42;;
11348;SDS011;5729;43.570;27.826;2022-09-29T13:59:34;8.00;;;3.10;;
11348;SDS011;5729;43.570;27.826;2022-09-29T14:02:16;9.93;;;2.90;;
11348;SDS011;5729;43.570;27.826;2022-09-29T14:04:51;12.15;;;3.67;;
11348;SDS011;5729;43.570;27.826;2022-09-29T14:07:35;6.60;;;2.97;;
11348;SDS011;5729;43.570;27.826;2022-09-29T14:15:38;4.68;;;3.03;;
11348;SDS011;5729;43.570;27.826;2022-09-29T14:18:19;10.70;;;2.60;;
11348;SDS011;5729;43.570;27.826;2022-09-29T14:20:59;8.60;;;3.25;;
11348;SDS011;5729;43.570;27.826;2022-09-29T14:23:51;5.38;;;2.83;;
11348;SDS011;5729;43.570;27.826;2022-09-29T14:29:23;7.70;;;2.83;;
11348;SDS011;5729;43.570;27.826;2022-09-29T14:31:53;6.55;;;2.97;;
11348;SDS011;5729;43.570;27.826;2022-09-29T14:34:22;6.50;;;2.90;;
11348;SDS011;5729;43.570;27.826;2022-09-29T14:36:51;6.60;;;3.08;;
11348;SDS011;5729;43.570;27.826;2022-09-29T14:39:18;11.43;;;3.15;;
11348;SDS011;5729;43.570;27.826;2022-09-29T14:41:46;12.75;;;3.63;;
11348;SDS011;5729;43.570;27.826;2022-09-29T14:44:29;13.73;;;3.17;;
11348;SDS011;5729;43.570;27.826;2022-09-29T14:47:33;14.05;;;3.97;;
11348;SDS011;5729;43.570;27.826;2022-09-29T14:56:50;8.18;;;3.83;;
11348;SDS011;5729;43.570;27.826;2022-09-29T14:59:28;10.77;;;3.95;;
11348;SDS011;5729;43.570;27.826;2022-09-29T15:04:21;8.32;;;4.25;;
11348;SDS011;5729;43.570;27.826;2022-09-29T15:06:47;10.55;;;3.58;;
11348;SDS011;5729;43.570;27.826;2022-09-29T15:11:52;9.57;;;3.75;;
11348;SDS011;5729;43.570;27.826;2022-09-29T15:14:27;20.17;;;3.40;;
11348;SDS011;5729;43.570;27.826;2022-09-29T15:19:55;37.65;;;6.75;;
11348;SDS011;5729;43.570;27.826;2022-09-29T15:35:56;0.30;;;0.30;;
11348;SDS011;5729;43.570;27.826;2022-09-29T15:44:00;0.30;;;0.30;;
11348;SDS011;5729;43.570;27.826;2022-09-29T15:46:45;0.30;;;0.30;;
11348;SDS011;5729;43.570;27.826;2022-09-29T15:49:25;0.30;;;0.30;;
11348;SDS011;5729;43.570;27.826;2022-09-29T15:52:02;0.30;;;0.30;;
11348;SDS011;5729;43.570;27.826;2022-09-29T15:54:30;0.30;;;0.30;;
11348;SDS011;5729;43.570;27.826;2022-09-29T15:56:58;0.30;;;0.30;;
11348;SDS011;5729;43.570;27.826;2022-09-29T15:59:49;12.40;;;8.30;;
11348;SDS011;5729;43.570;27.826;2022-09-29T16:05:01;0.30;;;0.30;;
11348;SDS011;5729;43.570;27.826;2022-09-29T16:07:30;0.30;;;0.30;;
11348;SDS011;5729;43.570;27.826;2022-09-29T16:10:01;0.50;;;0.50;;
11348;SDS011;5729;43.570;27.826;2022-09-29T16:12:36;0.30;;;0.30;;
11348;SDS011;5729;43.570;27.826;2022-09-29T16:15:14;0.30;;;0.30;;
11348;SDS011;5729;43.570;27.826;2022-09-29T16:17:45;0.75;;;0.75;;
11348;SDS011;5729;43.570;27.826;2022-09-29T16:20:13;0.30;;;0.30;;
11348;SDS011;5729;43.570;27.826;2022-09-29T16:22:46;0.40;;;0.40;;
11348;SDS011;5729;43.570;27.826;2022-09-29T16:25:23;0.30;;;0.30;;
11348;SDS011;5729;43.570;27.826;2022-09-29T16:27:52;0.70;;;0.70;;
11348;SDS011;5729;43.570;27.826;2022-09-29T16:30:26;0.38;;;0.38;;
11348;SDS011;5729;43.570;27.826;2022-09-29T16:32:55;0.30;;;0.30;;
11348;SDS011;5729;43.570;27.826;2022-09-29T16:35:46;0.30;;;0.30;;
11348;SDS011;5729;43.570;27.826;2022-09-29T16:40:50;0.40;;;0.40;;
11348;SDS011;5729;43.570;27.826;2022-09-29T16:43:25;0.20;;;0.20;;
11348;SDS011;5729;43.570;27.826;2022-09-29T16:45:56;0.25;;;0.25;;
11348;SDS011;5729;43.570;27.826;2022-09-29T16:48:26;0.40;;;0.40;;
11348;SDS011;5729;43.570;27.826;2022-09-29T16:50:54;0.30;;;0.30;;
11348;SDS011;5729;43.570;27.826;2022-09-29T16:53:27;0.30;;;0.30;;
11348;SDS011;5729;43.570;27.826;2022-09-29T16:55:56;0.25;;;0.25;;
11348;SDS011;5729;43.570;27.826;2022-09-29T16:58:23;0.52;;;0.52;;
11348;SDS011;5729;43.570;27.826;2022-09-29T17:00:49;0.30;;;0.30;;
11348;SDS011;5729;43.570;27.826;2022-09-29T17:03:14;0.30;;;0.30;;
11348;SDS011;5729;43.570;27.826;2022-09-29T17:05:40;0.30;;;0.30;;
11348;SDS011;5729;43.570;27.826;2022-09-29T17:08:13;0.38;;;0.38;;
11348;SDS011;5729;43.570;27.826;2022-09-29T17:10:51;0.30;;;0.30;;
11348;SDS011;5729;43.570;27.826;2022-09-29T17:13:18;0.47;;;0.47;;
11348;SDS011;5729;43.570;27.826;2022-09-29T17:15:45;0.30;;;0.30;;
11348;SDS011;5729;43.570;27.826;2022-09-29T17:18:14;0.40;;;0.40;;
11348;SDS011;5729;43.570;27.826;2022-09-29T17:20:40;0.38;;;0.38;;
11348;SDS011;5729;43.570;27.826;2022-09-29T17:23:06;0.30;;;0.30;;
11348;SDS011;5729;43.570;27.826;2022-09-29T17:25:33;0.30;;;0.30;;
11348;SDS011;5729;43.570;27.826;2022-09-29T17:28:00;0.40;;;0.40;;
11348;SDS011;5729;43.570;27.826;2022-09-29T17:30:35;3.53;;;3.25;;
11348;SDS011;5729;43.570;27.826;2022-09-29T17:33:00;0.40;;;0.40;;
11348;SDS011;5729;43.570;27.826;2022-09-29T17:35:29;0.25;;;0.25;;
11348;SDS011;5729;43.570;27.826;2022-09-29T17:37:57;0.30;;;0.30;;
11348;SDS011;5729;43.570;27.826;2022-09-29T17:40:24;0.50;;;0.50;;
11348;SDS011;5729;43.570;27.826;2022-09-29T17:42:50;0.30;;;0.30;;
11348;SDS011;5729;43.570;27.826;2022-09-29T17:45:18;0.30;;;0.30;;
11348;SDS011;5729;43.570;27.826;2022-09-29T17:47:44;0.30;;;0.30;;
11348;SDS011;5729;43.570;27.826;2022-09-29T17:53:12;0.30;;;0.30;;
11348;SDS011;5729;43.570;27.826;2022-09-29T17:55:39;0.35;;;0.35;;
11348;SDS011;5729;43.570;27.826;2022-09-29T17:58:05;0.30;;;0.30;;
11348;SDS011;5729;43.570;27.826;2022-09-29T18:00:32;0.30;;;0.30;;
11348;SDS011;5729;43.570;27.826;2022-09-29T18:03:09;0.30;;;0.30;;
11348;SDS011;5729;43.570;27.826;2022-09-29T18:05:37;0.65;;;0.65;;
11348;SDS011;5729;43.570;27.826;2022-09-29T18:08:04;0.30;;;0.30;;
11348;SDS011;5729;43.570;27.826;2022-09-29T18:11:04;0.50;;;0.50;;
11348;SDS011;5729;43.570;27.826;2022-09-29T18:13:24;0.70;;;0.70;;
11348;SDS011;5729;43.570;27.826;2022-09-29T18:15:51;0.30;;;0.30;;
11348;SDS011;5729;43.570;27.826;2022-09-29T18:18:18;0.30;;;0.30;;
11348;SDS011;5729;43.570;27.826;2022-09-29T18:20:46;0.30;;;0.30;;
11348;SDS011;5729;43.570;27.826;2022-09-29T18:23:14;0.40;;;0.40;;
11348;SDS011;5729;43.570;27.826;2022-09-29T18:25:41;0.40;;;0.40;;
11348;SDS011;5729;43.570;27.826;2022-09-29T18:28:09;0.30;;;0.30;;
11348;SDS011;5729;43.570;27.826;2022-09-29T18:30:39;0.30;;;0.30;;
11348;SDS011;5729;43.570;27.826;2022-09-29T18:33:13;0.30;;;0.30;;
11348;SDS011;5729;43.570;27.826;2022-09-29T18:35:43;0.50;;;0.50;;
11348;SDS011;5729;43.570;27.826;2022-09-29T18:38:10;0.30;;;0.30;;
11348;SDS011;5729;43.570;27.826;2022-09-29T18:40:37;0.30;;;0.30;;
11348;SDS011;5729;43.570;27.826;2022-09-29T18:43:03;0.47;;;0.47;;
11348;SDS011;5729;43.570;27.826;2022-09-29T18:45:31;0.30;;;0.30;;
11348;SDS011;5729;43.570;27.826;2022-09-29T18:48:01;0.38;;;0.38;;
11348;SDS011;5729;43.570;27.826;2022-09-29T18:50:29;0.47;;;0.47;;